Terminal Aerodrome Forecast
Issued by NWS

Home | Current Version | Previous Version | Text Only | Print | Product List | Glossary On
Versions: 1 2 3 4 5 6 7 8 9 10 11 12 13
000
FTUS43 KICT 310534
TAFCNU
TAF
KCNU 310534Z 3106/0106 VRB04KT P6SM OVC090
     FM311300 13007KT P6SM -RA SCT015 OVC030
     FM312000 18014KT 6SM -RA OVC015
     FM010200 10005KT P6SM -RA OVC015=

USA.gov is the U.S. government's official web portal to all federal, state and local government web resources and services.